sensor_id;sensor_type;location;lat;lon;timestamp;P1;durP1;ratioP1;P2;durP2;ratioP2
20462;SDS011;10390;53.566;9.980;2023-08-20T00:00:16;9.07;;;6.78;;
20462;SDS011;10390;53.566;9.980;2023-08-20T00:02:43;8.15;;;6.82;;
20462;SDS011;10390;53.566;9.980;2023-08-20T00:05:11;7.38;;;6.60;;
20462;SDS011;10390;53.566;9.980;2023-08-20T00:07:38;9.25;;;6.50;;
20462;SDS011;10390;53.566;9.980;2023-08-20T00:10:05;9.68;;;7.18;;
20462;SDS011;10390;53.566;9.980;2023-08-20T00:12:31;8.85;;;7.10;;
20462;SDS011;10390;53.566;9.980;2023-08-20T00:14:57;9.98;;;6.57;;
20462;SDS011;10390;53.566;9.980;2023-08-20T00:17:30;8.75;;;6.60;;
20462;SDS011;10390;53.566;9.980;2023-08-20T00:20:07;7.47;;;6.32;;
20462;SDS011;10390;53.566;9.980;2023-08-20T00:22:37;7.93;;;6.60;;
20462;SDS011;10390;53.566;9.980;2023-08-20T00:25:04;9.13;;;7.38;;
20462;SDS011;10390;53.566;9.980;2023-08-20T00:27:31;8.55;;;6.82;;
20462;SDS011;10390;53.566;9.980;2023-08-20T00:29:56;7.32;;;6.45;;
20462;SDS011;10390;53.566;9.980;2023-08-20T00:32:22;9.48;;;6.80;;
20462;SDS011;10390;53.566;9.980;2023-08-20T00:34:48;8.65;;;6.35;;
20462;SDS011;10390;53.566;9.980;2023-08-20T00:37:14;7.10;;;6.40;;
20462;SDS011;10390;53.566;9.980;2023-08-20T00:39:40;7.50;;;6.70;;
20462;SDS011;10390;53.566;9.980;2023-08-20T00:42:05;8.05;;;6.68;;
20462;SDS011;10390;53.566;9.980;2023-08-20T00:44:32;9.95;;;6.75;;
20462;SDS011;10390;53.566;9.980;2023-08-20T00:46:58;8.70;;;6.95;;
20462;SDS011;10390;53.566;9.980;2023-08-20T00:49:25;9.23;;;7.30;;
20462;SDS011;10390;53.566;9.980;2023-08-20T00:51:51;7.40;;;6.43;;
20462;SDS011;10390;53.566;9.980;2023-08-20T00:54:18;8.45;;;6.88;;
20462;SDS011;10390;53.566;9.980;2023-08-20T00:56:45;8.52;;;6.90;;
20462;SDS011;10390;53.566;9.980;2023-08-20T00:59:12;9.60;;;7.45;;
20462;SDS011;10390;53.566;9.980;2023-08-20T01:01:38;8.23;;;6.93;;
20462;SDS011;10390;53.566;9.980;2023-08-20T01:04:04;9.52;;;6.95;;
20462;SDS011;10390;53.566;9.980;2023-08-20T01:11:56;9.52;;;6.53;;
20462;SDS011;10390;53.566;9.980;2023-08-20T01:14:24;9.02;;;6.97;;
20462;SDS011;10390;53.566;9.980;2023-08-20T01:16:50;9.00;;;7.13;;
20462;SDS011;10390;53.566;9.980;2023-08-20T01:19:16;9.20;;;7.15;;
20462;SDS011;10390;53.566;9.980;2023-08-20T01:30:28;7.90;;;7.07;;
20462;SDS011;10390;53.566;9.980;2023-08-20T01:32:56;7.13;;;6.43;;
20462;SDS011;10390;53.566;9.980;2023-08-20T01:35:24;7.90;;;6.70;;
20462;SDS011;10390;53.566;9.980;2023-08-20T01:37:51;11.30;;;7.20;;
20462;SDS011;10390;53.566;9.980;2023-08-20T01:40:17;8.60;;;7.15;;
20462;SDS011;10390;53.566;9.980;2023-08-20T01:42:42;7.13;;;6.43;;
20462;SDS011;10390;53.566;9.980;2023-08-20T01:45:08;8.75;;;7.10;;
20462;SDS011;10390;53.566;9.980;2023-08-20T01:47:34;11.40;;;6.97;;
20462;SDS011;10390;53.566;9.980;2023-08-20T01:50:00;8.27;;;7.00;;
20462;SDS011;10390;53.566;9.980;2023-08-20T01:52:26;7.80;;;6.85;;
20462;SDS011;10390;53.566;9.980;2023-08-20T01:54:51;8.40;;;7.47;;
20462;SDS011;10390;53.566;9.980;2023-08-20T01:57:18;8.15;;;7.05;;
20462;SDS011;10390;53.566;9.980;2023-08-20T01:59:44;9.25;;;6.82;;
20462;SDS011;10390;53.566;9.980;2023-08-20T02:02:09;8.77;;;6.90;;
20462;SDS011;10390;53.566;9.980;2023-08-20T02:04:35;8.65;;;7.32;;
20462;SDS011;10390;53.566;9.980;2023-08-20T02:07:01;8.48;;;7.30;;
20462;SDS011;10390;53.566;9.980;2023-08-20T02:09:26;8.32;;;7.20;;
20462;SDS011;10390;53.566;9.980;2023-08-20T02:11:52;9.57;;;7.75;;
20462;SDS011;10390;53.566;9.980;2023-08-20T02:14:17;8.02;;;7.22;;
20462;SDS011;10390;53.566;9.980;2023-08-20T02:16:43;8.52;;;7.38;;
20462;SDS011;10390;53.566;9.980;2023-08-20T02:19:10;7.97;;;7.10;;
20462;SDS011;10390;53.566;9.980;2023-08-20T02:21:45;8.50;;;7.57;;
20462;SDS011;10390;53.566;9.980;2023-08-20T02:24:10;9.38;;;7.13;;
20462;SDS011;10390;53.566;9.980;2023-08-20T02:26:36;8.90;;;7.47;;
20462;SDS011;10390;53.566;9.980;2023-08-20T02:29:02;7.95;;;7.25;;
20462;SDS011;10390;53.566;9.980;2023-08-20T02:31:28;9.55;;;7.50;;
20462;SDS011;10390;53.566;9.980;2023-08-20T02:33:53;10.18;;;7.45;;
20462;SDS011;10390;53.566;9.980;2023-08-20T02:36:19;8.77;;;7.43;;
20462;SDS011;10390;53.566;9.980;2023-08-20T02:38:45;8.23;;;7.30;;
20462;SDS011;10390;53.566;9.980;2023-08-20T02:41:11;9.02;;;7.38;;
20462;SDS011;10390;53.566;9.980;2023-08-20T02:43:37;7.93;;;7.00;;
20462;SDS011;10390;53.566;9.980;2023-08-20T02:46:02;8.48;;;7.53;;
20462;SDS011;10390;53.566;9.980;2023-08-20T02:48:29;8.07;;;7.20;;
20462;SDS011;10390;53.566;9.980;2023-08-20T02:50:54;8.38;;;7.57;;
20462;SDS011;10390;53.566;9.980;2023-08-20T02:53:20;10.85;;;8.07;;
20462;SDS011;10390;53.566;9.980;2023-08-20T02:55:46;8.07;;;7.28;;
20462;SDS011;10390;53.566;9.980;2023-08-20T02:58:12;7.85;;;6.80;;
20462;SDS011;10390;53.566;9.980;2023-08-20T03:00:41;8.05;;;7.25;;
20462;SDS011;10390;53.566;9.980;2023-08-20T03:03:10;9.98;;;7.28;;
20462;SDS011;10390;53.566;9.980;2023-08-20T03:05:36;9.45;;;7.82;;
20462;SDS011;10390;53.566;9.980;2023-08-20T03:08:02;8.23;;;7.43;;
20462;SDS011;10390;53.566;9.980;2023-08-20T03:10:30;10.75;;;7.85;;
20462;SDS011;10390;53.566;9.980;2023-08-20T03:12:56;10.35;;;7.50;;
20462;SDS011;10390;53.566;9.980;2023-08-20T03:15:26;8.70;;;7.80;;
20462;SDS011;10390;53.566;9.980;2023-08-20T03:17:52;9.45;;;7.60;;
20462;SDS011;10390;53.566;9.980;2023-08-20T03:20:18;8.98;;;7.53;;
20462;SDS011;10390;53.566;9.980;2023-08-20T03:22:43;9.85;;;7.70;;
20462;SDS011;10390;53.566;9.980;2023-08-20T03:25:09;8.48;;;7.57;;
20462;SDS011;10390;53.566;9.980;2023-08-20T03:27:34;8.35;;;7.53;;
20462;SDS011;10390;53.566;9.980;2023-08-20T03:30:00;8.93;;;8.00;;
20462;SDS011;10390;53.566;9.980;2023-08-20T03:32:26;9.20;;;7.93;;
20462;SDS011;10390;53.566;9.980;2023-08-20T03:34:52;7.80;;;7.00;;
20462;SDS011;10390;53.566;9.980;2023-08-20T03:37:18;8.88;;;7.70;;
20462;SDS011;10390;53.566;9.980;2023-08-20T03:39:44;9.82;;;7.72;;
20462;SDS011;10390;53.566;9.980;2023-08-20T03:42:10;9.27;;;7.32;;
20462;SDS011;10390;53.566;9.980;2023-08-20T03:44:35;9.18;;;8.00;;
20462;SDS011;10390;53.566;9.980;2023-08-20T03:47:01;9.60;;;7.50;;
20462;SDS011;10390;53.566;9.980;2023-08-20T03:49:27;8.10;;;7.30;;
20462;SDS011;10390;53.566;9.980;2023-08-20T03:51:52;9.10;;;8.20;;
20462;SDS011;10390;53.566;9.980;2023-08-20T03:54:18;9.27;;;8.23;;
20462;SDS011;10390;53.566;9.980;2023-08-20T03:56:45;8.90;;;8.00;;
20462;SDS011;10390;53.566;9.980;2023-08-20T03:59:10;9.15;;;8.25;;
20462;SDS011;10390;53.566;9.980;2023-08-20T04:01:36;8.65;;;7.75;;
20462;SDS011;10390;53.566;9.980;2023-08-20T04:04:02;9.75;;;8.75;;
20462;SDS011;10390;53.566;9.980;2023-08-20T04:06:29;9.73;;;8.73;;
20462;SDS011;10390;53.566;9.980;2023-08-20T04:08:54;9.57;;;8.68;;
20462;SDS011;10390;53.566;9.980;2023-08-20T04:11:20;10.05;;;8.55;;
20462;SDS011;10390;53.566;9.980;2023-08-20T04:13:45;9.63;;;8.63;;
20462;SDS011;10390;53.566;9.980;2023-08-20T04:16:11;9.15;;;8.23;;
20462;SDS011;10390;53.566;9.980;2023-08-20T04:18:38;9.43;;;8.45;;
20462;SDS011;10390;53.566;9.980;2023-08-20T04:21:04;9.30;;;8.30;;
20462;SDS011;10390;53.566;9.980;2023-08-20T04:23:30;9.55;;;8.27;;
20462;SDS011;10390;53.566;9.980;2023-08-20T04:25:55;9.57;;;8.20;;
20462;SDS011;10390;53.566;9.980;2023-08-20T04:28:21;9.48;;;8.40;;
20462;SDS011;10390;53.566;9.980;2023-08-20T04:30:47;8.77;;;7.90;;
20462;SDS011;10390;53.566;9.980;2023-08-20T04:33:19;9.73;;;8.82;;
20462;SDS011;10390;53.566;9.980;2023-08-20T04:35:45;9.30;;;8.32;;
20462;SDS011;10390;53.566;9.980;2023-08-20T04:38:10;9.55;;;8.55;;
20462;SDS011;10390;53.566;9.980;2023-08-20T04:40:36;9.50;;;8.35;;
20462;SDS011;10390;53.566;9.980;2023-08-20T04:43:01;10.38;;;8.50;;
20462;SDS011;10390;53.566;9.980;2023-08-20T04:45:27;8.90;;;8.00;;
20462;SDS011;10390;53.566;9.980;2023-08-20T04:47:52;8.45;;;7.65;;
20462;SDS011;10390;53.566;9.980;2023-08-20T04:50:18;8.60;;;7.70;;
20462;SDS011;10390;53.566;9.980;2023-08-20T04:52:44;9.10;;;8.18;;
20462;SDS011;10390;53.566;9.980;2023-08-20T04:55:09;8.82;;;7.75;;
20462;SDS011;10390;53.566;9.980;2023-08-20T04:57:35;8.45;;;7.65;;
20462;SDS011;10390;53.566;9.980;2023-08-20T05:00:00;8.75;;;7.85;;
20462;SDS011;10390;53.566;9.980;2023-08-20T05:02:26;8.40;;;7.60;;
20462;SDS011;10390;53.566;9.980;2023-08-20T05:04:52;8.32;;;7.53;;
20462;SDS011;10390;53.566;9.980;2023-08-20T05:07:17;8.32;;;7.50;;
20462;SDS011;10390;53.566;9.980;2023-08-20T05:09:43;7.95;;;7.25;;
20462;SDS011;10390;53.566;9.980;2023-08-20T05:12:09;8.20;;;7.32;;
20462;SDS011;10390;53.566;9.980;2023-08-20T05:14:34;8.23;;;7.43;;
20462;SDS011;10390;53.566;9.980;2023-08-20T05:17:00;8.05;;;7.25;;
20462;SDS011;10390;53.566;9.980;2023-08-20T05:19:26;7.55;;;6.85;;
20462;SDS011;10390;53.566;9.980;2023-08-20T05:21:51;8.05;;;7.25;;
20462;SDS011;10390;53.566;9.980;2023-08-20T05:24:21;8.10;;;7.30;;
20462;SDS011;10390;53.566;9.980;2023-08-20T05:26:47;8.05;;;7.25;;
20462;SDS011;10390;53.566;9.980;2023-08-20T05:29:15;8.18;;;7.38;;
20462;SDS011;10390;53.566;9.980;2023-08-20T05:31:40;8.55;;;7.65;;
20462;SDS011;10390;53.566;9.980;2023-08-20T05:34:06;9.18;;;8.27;;
20462;SDS011;10390;53.566;9.980;2023-08-20T05:36:31;9.43;;;8.10;;
20462;SDS011;10390;53.566;9.980;2023-08-20T05:38:57;9.63;;;8.63;;
20462;SDS011;10390;53.566;9.980;2023-08-20T05:41:22;10.75;;;8.60;;
20462;SDS011;10390;53.566;9.980;2023-08-20T05:43:48;11.38;;;8.98;;
20462;SDS011;10390;53.566;9.980;2023-08-20T05:46:13;10.27;;;9.18;;
20462;SDS011;10390;53.566;9.980;2023-08-20T05:48:39;11.43;;;10.20;;
20462;SDS011;10390;53.566;9.980;2023-08-20T05:51:04;10.80;;;9.68;;
20462;SDS011;10390;53.566;9.980;2023-08-20T05:53:30;12.18;;;10.13;;
20462;SDS011;10390;53.566;9.980;2023-08-20T05:55:55;12.05;;;10.63;;
20462;SDS011;10390;53.566;9.980;2023-08-20T05:58:21;13.82;;;11.20;;
20462;SDS011;10390;53.566;9.980;2023-08-20T06:00:47;12.50;;;10.43;;
20462;SDS011;10390;53.566;9.980;2023-08-20T06:03:12;11.65;;;10.43;;
20462;SDS011;10390;53.566;9.980;2023-08-20T06:05:38;13.65;;;11.15;;
20462;SDS011;10390;53.566;9.980;2023-08-20T06:08:04;14.00;;;11.45;;
20462;SDS011;10390;53.566;9.980;2023-08-20T06:10:30;14.50;;;11.50;;
20462;SDS011;10390;53.566;9.980;2023-08-20T06:12:56;14.38;;;11.70;;
20462;SDS011;10390;53.566;9.980;2023-08-20T06:15:22;15.48;;;11.88;;
20462;SDS011;10390;53.566;9.980;2023-08-20T06:17:47;15.38;;;11.65;;
20462;SDS011;10390;53.566;9.980;2023-08-20T06:20:13;14.18;;;11.95;;
20462;SDS011;10390;53.566;9.980;2023-08-20T06:22:38;16.60;;;11.88;;
20462;SDS011;10390;53.566;9.980;2023-08-20T06:25:04;14.70;;;11.73;;
20462;SDS011;10390;53.566;9.980;2023-08-20T06:27:30;15.40;;;11.38;;
20462;SDS011;10390;53.566;9.980;2023-08-20T06:29:56;13.60;;;11.27;;
20462;SDS011;10390;53.566;9.980;2023-08-20T06:32:22;15.48;;;11.73;;
20462;SDS011;10390;53.566;9.980;2023-08-20T06:34:51;13.13;;;11.55;;
20462;SDS011;10390;53.566;9.980;2023-08-20T06:37:16;13.57;;;10.73;;
20462;SDS011;10390;53.566;9.980;2023-08-20T06:39:42;15.25;;;11.20;;
20462;SDS011;10390;53.566;9.980;2023-08-20T06:42:08;11.38;;;9.88;;
20462;SDS011;10390;53.566;9.980;2023-08-20T06:44:33;12.55;;;9.85;;
20462;SDS011;10390;53.566;9.980;2023-08-20T06:47:00;11.18;;;9.10;;
20462;SDS011;10390;53.566;9.980;2023-08-20T06:49:25;13.43;;;10.30;;
20462;SDS011;10390;53.566;9.980;2023-08-20T06:51:51;11.70;;;10.25;;
20462;SDS011;10390;53.566;9.980;2023-08-20T06:54:17;11.73;;;10.00;;
20462;SDS011;10390;53.566;9.980;2023-08-20T06:56:42;12.32;;;10.82;;
20462;SDS011;10390;53.566;9.980;2023-08-20T06:59:08;11.07;;;9.43;;
20462;SDS011;10390;53.566;9.980;2023-08-20T07:01:33;10.18;;;8.52;;
20462;SDS011;10390;53.566;9.980;2023-08-20T07:03:59;12.05;;;8.77;;
20462;SDS011;10390;53.566;9.980;2023-08-20T07:06:24;11.70;;;8.55;;
20462;SDS011;10390;53.566;9.980;2023-08-20T07:08:50;9.95;;;8.95;;
20462;SDS011;10390;53.566;9.980;2023-08-20T07:11:16;10.55;;;8.55;;
20462;SDS011;10390;53.566;9.980;2023-08-20T07:13:41;10.43;;;8.77;;
20462;SDS011;10390;53.566;9.980;2023-08-20T07:16:07;10.60;;;8.35;;
20462;SDS011;10390;53.566;9.980;2023-08-20T07:18:33;10.55;;;8.73;;
20462;SDS011;10390;53.566;9.980;2023-08-20T07:20:58;9.43;;;8.48;;
20462;SDS011;10390;53.566;9.980;2023-08-20T07:23:24;9.38;;;8.38;;
20462;SDS011;10390;53.566;9.980;2023-08-20T07:25:49;10.05;;;8.95;;
20462;SDS011;10390;53.566;9.980;2023-08-20T07:28:17;10.10;;;9.10;;
20462;SDS011;10390;53.566;9.980;2023-08-20T07:31:02;12.02;;;10.10;;
20462;SDS011;10390;53.566;9.980;2023-08-20T07:33:28;12.13;;;10.02;;
20462;SDS011;10390;53.566;9.980;2023-08-20T07:35:54;11.60;;;10.05;;
20462;SDS011;10390;53.566;9.980;2023-08-20T07:38:19;10.93;;;9.85;;
20462;SDS011;10390;53.566;9.980;2023-08-20T07:40:45;10.20;;;9.30;;
20462;SDS011;10390;53.566;9.980;2023-08-20T07:43:10;10.20;;;9.00;;
20462;SDS011;10390;53.566;9.980;2023-08-20T07:45:36;9.80;;;8.90;;
20462;SDS011;10390;53.566;9.980;2023-08-20T07:48:02;8.68;;;7.80;;
20462;SDS011;10390;53.566;9.980;2023-08-20T07:50:28;8.50;;;7.70;;
20462;SDS011;10390;53.566;9.980;2023-08-20T07:52:53;9.27;;;8.40;;
20462;SDS011;10390;53.566;9.980;2023-08-20T07:55:19;8.75;;;7.93;;
20462;SDS011;10390;53.566;9.980;2023-08-20T07:57:44;9.48;;;8.23;;
20462;SDS011;10390;53.566;9.980;2023-08-20T08:00:10;8.00;;;7.20;;
20462;SDS011;10390;53.566;9.980;2023-08-20T08:02:36;8.65;;;7.85;;
20462;SDS011;10390;53.566;9.980;2023-08-20T08:05:02;8.63;;;7.82;;
20462;SDS011;10390;53.566;9.980;2023-08-20T08:07:28;7.80;;;7.00;;
20462;SDS011;10390;53.566;9.980;2023-08-20T08:09:53;7.95;;;7.15;;
20462;SDS011;10390;53.566;9.980;2023-08-20T08:12:19;8.00;;;7.20;;
20462;SDS011;10390;53.566;9.980;2023-08-20T08:14:44;8.23;;;7.43;;
20462;SDS011;10390;53.566;9.980;2023-08-20T08:17:10;7.63;;;6.93;;
20462;SDS011;10390;53.566;9.980;2023-08-20T08:19:35;7.68;;;6.97;;
20462;SDS011;10390;53.566;9.980;2023-08-20T08:22:01;7.88;;;7.18;;
20462;SDS011;10390;53.566;9.980;2023-08-20T08:24:27;8.30;;;7.60;;
20462;SDS011;10390;53.566;9.980;2023-08-20T08:26:53;7.75;;;6.95;;
20462;SDS011;10390;53.566;9.980;2023-08-20T08:29:19;7.85;;;7.00;;
20462;SDS011;10390;53.566;9.980;2023-08-20T08:31:44;7.68;;;6.88;;
20462;SDS011;10390;53.566;9.980;2023-08-20T08:34:10;7.95;;;7.20;;
20462;SDS011;10390;53.566;9.980;2023-08-20T08:36:36;7.50;;;6.75;;
20462;SDS011;10390;53.566;9.980;2023-08-20T08:39:01;7.50;;;6.80;;
20462;SDS011;10390;53.566;9.980;2023-08-20T08:41:27;7.55;;;6.72;;
20462;SDS011;10390;53.566;9.980;2023-08-20T08:43:55;7.55;;;6.85;;
20462;SDS011;10390;53.566;9.980;2023-08-20T08:46:22;7.40;;;6.70;;
20462;SDS011;10390;53.566;9.980;2023-08-20T08:48:49;7.22;;;6.53;;
20462;SDS011;10390;53.566;9.980;2023-08-20T08:51:16;7.25;;;6.65;;
20462;SDS011;10390;53.566;9.980;2023-08-20T08:53:42;7.60;;;6.97;;
20462;SDS011;10390;53.566;9.980;2023-08-20T08:56:11;7.57;;;6.88;;
20462;SDS011;10390;53.566;9.980;2023-08-20T08:58:36;7.85;;;7.07;;
20462;SDS011;10390;53.566;9.980;2023-08-20T09:01:02;8.45;;;7.60;;
20462;SDS011;10390;53.566;9.980;2023-08-20T09:03:28;7.95;;;7.15;;
20462;SDS011;10390;53.566;9.980;2023-08-20T09:05:54;8.02;;;7.10;;
20462;SDS011;10390;53.566;9.980;2023-08-20T09:08:31;8.70;;;7.80;;
20462;SDS011;10390;53.566;9.980;2023-08-20T09:10:58;8.10;;;7.40;;
20462;SDS011;10390;53.566;9.980;2023-08-20T09:15:59;7.75;;;6.95;;
20462;SDS011;10390;53.566;9.980;2023-08-20T09:18:38;8.55;;;7.75;;
20462;SDS011;10390;53.566;9.980;2023-08-20T09:21:10;7.90;;;7.10;;
20462;SDS011;10390;53.566;9.980;2023-08-20T09:23:37;7.35;;;6.72;;
20462;SDS011;10390;53.566;9.980;2023-08-20T09:26:03;8.70;;;7.90;;
20462;SDS011;10390;53.566;9.980;2023-08-20T09:28:43;9.20;;;8.40;;
20462;SDS011;10390;53.566;9.980;2023-08-20T09:31:10;8.48;;;7.78;;
20462;SDS011;10390;53.566;9.980;2023-08-20T09:33:36;7.57;;;6.88;;
20462;SDS011;10390;53.566;9.980;2023-08-20T09:36:07;8.23;;;7.53;;
20462;SDS011;10390;53.566;9.980;2023-08-20T09:38:36;8.30;;;7.50;;
20462;SDS011;10390;53.566;9.980;2023-08-20T09:41:04;8.40;;;7.60;;
20462;SDS011;10390;53.566;9.980;2023-08-20T09:43:33;8.80;;;8.00;;
20462;SDS011;10390;53.566;9.980;2023-08-20T09:46:03;9.00;;;8.10;;
20462;SDS011;10390;53.566;9.980;2023-08-20T09:48:33;7.53;;;6.82;;
20462;SDS011;10390;53.566;9.980;2023-08-20T09:51:01;8.50;;;7.47;;
20462;SDS011;10390;53.566;9.980;2023-08-20T09:53:34;8.30;;;6.40;;
20462;SDS011;10390;53.566;9.980;2023-08-20T09:56:09;8.15;;;6.97;;
20462;SDS011;10390;53.566;9.980;2023-08-20T09:58:39;7.35;;;6.63;;
20462;SDS011;10390;53.566;9.980;2023-08-20T10:01:06;8.23;;;6.97;;
20462;SDS011;10390;53.566;9.980;2023-08-20T10:03:32;7.95;;;7.25;;
20462;SDS011;10390;53.566;9.980;2023-08-20T10:05:58;8.07;;;7.32;;
20462;SDS011;10390;53.566;9.980;2023-08-20T10:08:26;8.27;;;7.57;;
20462;SDS011;10390;53.566;9.980;2023-08-20T10:10:52;7.93;;;7.13;;
20462;SDS011;10390;53.566;9.980;2023-08-20T10:13:18;7.82;;;7.13;;
20462;SDS011;10390;53.566;9.980;2023-08-20T10:15:43;7.97;;;7.28;;
20462;SDS011;10390;53.566;9.980;2023-08-20T10:18:10;7.45;;;6.57;;
20462;SDS011;10390;53.566;9.980;2023-08-20T10:20:38;7.43;;;6.72;;
20462;SDS011;10390;53.566;9.980;2023-08-20T10:23:05;7.25;;;6.45;;
20462;SDS011;10390;53.566;9.980;2023-08-20T10:25:30;7.68;;;6.78;;
20462;SDS011;10390;53.566;9.980;2023-08-20T10:31:10;8.80;;;7.25;;
20462;SDS011;10390;53.566;9.980;2023-08-20T10:33:38;8.23;;;7.38;;
20462;SDS011;10390;53.566;9.980;2023-08-20T10:36:23;8.38;;;7.40;;
20462;SDS011;10390;53.566;9.980;2023-08-20T10:38:55;8.57;;;6.70;;
20462;SDS011;10390;53.566;9.980;2023-08-20T10:41:25;7.68;;;6.90;;
20462;SDS011;10390;53.566;9.980;2023-08-20T10:43:57;7.32;;;6.60;;
20462;SDS011;10390;53.566;9.980;2023-08-20T10:46:24;8.02;;;6.80;;
20462;SDS011;10390;53.566;9.980;2023-08-20T10:48:53;7.70;;;6.70;;
20462;SDS011;10390;53.566;9.980;2023-08-20T10:56:45;8.13;;;6.72;;
20462;SDS011;10390;53.566;9.980;2023-08-20T11:01:45;6.95;;;6.22;;
20462;SDS011;10390;53.566;9.980;2023-08-20T11:04:12;7.47;;;6.75;;
20462;SDS011;10390;53.566;9.980;2023-08-20T11:06:40;7.32;;;6.50;;
20462;SDS011;10390;53.566;9.980;2023-08-20T11:09:06;7.72;;;6.75;;
20462;SDS011;10390;53.566;9.980;2023-08-20T11:11:32;7.85;;;6.85;;
20462;SDS011;10390;53.566;9.980;2023-08-20T11:14:04;7.47;;;6.53;;
20462;SDS011;10390;53.566;9.980;2023-08-20T11:16:31;7.63;;;6.82;;
20462;SDS011;10390;53.566;9.980;2023-08-20T11:18:57;7.18;;;6.47;;
20462;SDS011;10390;53.566;9.980;2023-08-20T11:21:23;8.90;;;6.57;;
20462;SDS011;10390;53.566;9.980;2023-08-20T11:23:48;8.38;;;7.00;;
20462;SDS011;10390;53.566;9.980;2023-08-20T11:26:14;7.32;;;6.63;;
20462;SDS011;10390;53.566;9.980;2023-08-20T11:28:44;6.80;;;5.85;;
20462;SDS011;10390;53.566;9.980;2023-08-20T11:31:11;7.07;;;6.38;;
20462;SDS011;10390;53.566;9.980;2023-08-20T11:33:37;7.47;;;6.70;;
20462;SDS011;10390;53.566;9.980;2023-08-20T11:36:04;8.27;;;7.10;;
20462;SDS011;10390;53.566;9.980;2023-08-20T11:38:59;6.88;;;5.93;;
20462;SDS011;10390;53.566;9.980;2023-08-20T11:41:24;6.90;;;6.20;;
20462;SDS011;10390;53.566;9.980;2023-08-20T11:43:51;7.20;;;6.50;;
20462;SDS011;10390;53.566;9.980;2023-08-20T11:46:19;7.10;;;6.10;;
20462;SDS011;10390;53.566;9.980;2023-08-20T11:49:02;8.60;;;6.88;;
20462;SDS011;10390;53.566;9.980;2023-08-20T11:51:38;7.30;;;6.60;;
20462;SDS011;10390;53.566;9.980;2023-08-20T11:54:08;6.88;;;6.18;;
20462;SDS011;10390;53.566;9.980;2023-08-20T11:56:35;7.22;;;5.35;;
20462;SDS011;10390;53.566;9.980;2023-08-20T11:59:03;8.57;;;7.72;;
20462;SDS011;10390;53.566;9.980;2023-08-20T12:01:32;7.28;;;6.57;;
20462;SDS011;10390;53.566;9.980;2023-08-20T12:04:04;7.75;;;7.03;;
20462;SDS011;10390;53.566;9.980;2023-08-20T12:06:31;7.70;;;6.97;;
20462;SDS011;10390;53.566;9.980;2023-08-20T12:08:59;9.50;;;7.00;;
20462;SDS011;10390;53.566;9.980;2023-08-20T12:11:25;8.68;;;6.72;;
20462;SDS011;10390;53.566;9.980;2023-08-20T12:13:51;8.40;;;7.55;;
20462;SDS011;10390;53.566;9.980;2023-08-20T12:16:17;8.20;;;7.13;;
20462;SDS011;10390;53.566;9.980;2023-08-20T12:18:45;8.18;;;7.47;;
20462;SDS011;10390;53.566;9.980;2023-08-20T12:21:11;8.52;;;7.72;;
20462;SDS011;10390;53.566;9.980;2023-08-20T12:23:37;9.02;;;7.80;;
20462;SDS011;10390;53.566;9.980;2023-08-20T12:26:02;8.20;;;7.43;;
20462;SDS011;10390;53.566;9.980;2023-08-20T12:28:28;7.93;;;7.18;;
20462;SDS011;10390;53.566;9.980;2023-08-20T12:30:54;7.68;;;6.88;;
20462;SDS011;10390;53.566;9.980;2023-08-20T12:33:19;8.57;;;7.05;;
20462;SDS011;10390;53.566;9.980;2023-08-20T12:35:46;8.13;;;7.30;;
20462;SDS011;10390;53.566;9.980;2023-08-20T12:38:11;7.65;;;6.90;;
20462;SDS011;10390;53.566;9.980;2023-08-20T12:40:37;7.15;;;6.47;;
20462;SDS011;10390;53.566;9.980;2023-08-20T12:43:03;7.28;;;6.68;;
20462;SDS011;10390;53.566;9.980;2023-08-20T12:45:29;7.47;;;6.78;;
20462;SDS011;10390;53.566;9.980;2023-08-20T12:47:54;8.55;;;7.75;;
20462;SDS011;10390;53.566;9.980;2023-08-20T12:50:20;7.70;;;7.07;;
20462;SDS011;10390;53.566;9.980;2023-08-20T12:52:46;8.35;;;7.65;;
20462;SDS011;10390;53.566;9.980;2023-08-20T12:55:14;7.97;;;7.20;;
20462;SDS011;10390;53.566;9.980;2023-08-20T12:57:51;8.45;;;7.70;;
20462;SDS011;10390;53.566;9.980;2023-08-20T13:00:24;7.70;;;6.93;;
20462;SDS011;10390;53.566;9.980;2023-08-20T13:02:50;7.80;;;7.10;;
20462;SDS011;10390;53.566;9.980;2023-08-20T13:05:17;7.80;;;7.10;;
20462;SDS011;10390;53.566;9.980;2023-08-20T13:07:43;8.75;;;7.93;;
20462;SDS011;10390;53.566;9.980;2023-08-20T13:10:09;7.80;;;7.05;;
20462;SDS011;10390;53.566;9.980;2023-08-20T13:12:35;8.20;;;7.00;;
20462;SDS011;10390;53.566;9.980;2023-08-20T13:15:01;7.85;;;7.15;;
20462;SDS011;10390;53.566;9.980;2023-08-20T13:17:29;8.23;;;7.43;;
20462;SDS011;10390;53.566;9.980;2023-08-20T13:19:55;7.50;;;6.80;;
20462;SDS011;10390;53.566;9.980;2023-08-20T13:22:21;9.80;;;7.47;;
20462;SDS011;10390;53.566;9.980;2023-08-20T13:24:46;7.90;;;7.20;;
20462;SDS011;10390;53.566;9.980;2023-08-20T13:27:12;7.72;;;7.03;;
20462;SDS011;10390;53.566;9.980;2023-08-20T13:29:40;8.15;;;7.10;;
20462;SDS011;10390;53.566;9.980;2023-08-20T13:32:06;8.20;;;7.47;;
20462;SDS011;10390;53.566;9.980;2023-08-20T13:34:31;7.45;;;6.35;;
20462;SDS011;10390;53.566;9.980;2023-08-20T13:36:57;7.40;;;6.63;;
20462;SDS011;10390;53.566;9.980;2023-08-20T13:39:22;7.47;;;6.65;;
20462;SDS011;10390;53.566;9.980;2023-08-20T13:41:48;7.90;;;7.10;;
20462;SDS011;10390;53.566;9.980;2023-08-20T13:44:15;7.07;;;6.38;;
20462;SDS011;10390;53.566;9.980;2023-08-20T13:46:40;7.90;;;7.10;;
20462;SDS011;10390;53.566;9.980;2023-08-20T13:49:06;7.18;;;6.57;;
20462;SDS011;10390;53.566;9.980;2023-08-20T13:51:32;7.60;;;6.90;;
20462;SDS011;10390;53.566;9.980;2023-08-20T13:53:57;7.85;;;7.05;;
20462;SDS011;10390;53.566;9.980;2023-08-20T13:56:23;8.00;;;7.20;;
20462;SDS011;10390;53.566;9.980;2023-08-20T13:58:50;7.88;;;6.75;;
20462;SDS011;10390;53.566;9.980;2023-08-20T14:01:16;7.80;;;7.00;;
20462;SDS011;10390;53.566;9.980;2023-08-20T14:03:42;7.45;;;6.75;;
20462;SDS011;10390;53.566;9.980;2023-08-20T14:06:07;8.05;;;7.22;;
20462;SDS011;10390;53.566;9.980;2023-08-20T14:08:33;7.20;;;6.50;;
20462;SDS011;10390;53.566;9.980;2023-08-20T14:10:58;7.97;;;6.93;;
20462;SDS011;10390;53.566;9.980;2023-08-20T14:13:24;7.97;;;7.28;;
20462;SDS011;10390;53.566;9.980;2023-08-20T14:15:49;8.07;;;7.25;;
20462;SDS011;10390;53.566;9.980;2023-08-20T14:18:15;7.93;;;7.22;;
20462;SDS011;10390;53.566;9.980;2023-08-20T14:20:41;7.43;;;6.70;;
20462;SDS011;10390;53.566;9.980;2023-08-20T14:23:06;7.65;;;6.90;;
20462;SDS011;10390;53.566;9.980;2023-08-20T14:25:32;7.45;;;6.85;;
20462;SDS011;10390;53.566;9.980;2023-08-20T14:27:58;7.57;;;6.72;;
20462;SDS011;10390;53.566;9.980;2023-08-20T14:30:23;8.20;;;7.40;;
20462;SDS011;10390;53.566;9.980;2023-08-20T14:32:49;8.52;;;7.68;;
20462;SDS011;10390;53.566;9.980;2023-08-20T14:35:14;7.97;;;7.28;;
20462;SDS011;10390;53.566;9.980;2023-08-20T14:37:40;7.80;;;7.10;;
20462;SDS011;10390;53.566;9.980;2023-08-20T14:40:06;8.02;;;7.15;;
20462;SDS011;10390;53.566;9.980;2023-08-20T14:42:32;6.75;;;6.10;;
20462;SDS011;10390;53.566;9.980;2023-08-20T14:44:58;8.98;;;7.13;;
20462;SDS011;10390;53.566;9.980;2023-08-20T14:47:24;8.27;;;7.47;;
20462;SDS011;10390;53.566;9.980;2023-08-20T14:49:49;7.93;;;6.80;;
20462;SDS011;10390;53.566;9.980;2023-08-20T14:52:15;6.72;;;6.13;;
20462;SDS011;10390;53.566;9.980;2023-08-20T14:54:40;7.55;;;6.82;;
20462;SDS011;10390;53.566;9.980;2023-08-20T14:57:07;7.55;;;6.85;;
20462;SDS011;10390;53.566;9.980;2023-08-20T14:59:32;7.60;;;6.90;;
20462;SDS011;10390;53.566;9.980;2023-08-20T15:01:59;8.75;;;7.88;;
20462;SDS011;10390;53.566;9.980;2023-08-20T15:04:25;7.93;;;7.15;;
20462;SDS011;10390;53.566;9.980;2023-08-20T15:06:50;7.50;;;6.82;;
20462;SDS011;10390;53.566;9.980;2023-08-20T15:09:16;7.38;;;6.78;;